sensor_id;sensor_type;location;lat;lon;timestamp;pressure;altitude;pressure_sealevel;temperature;humidity
59419;BME280;45224;50.904;6.038;2023-03-24T00:01:14;98313.84;;;11.94;100.00
59419;BME280;45224;50.904;6.038;2023-03-24T00:02:45;98323.34;;;11.93;100.00
59419;BME280;45224;50.904;6.038;2023-03-24T00:04:16;98312.84;;;11.98;100.00
59419;BME280;45224;50.904;6.038;2023-03-24T00:05:56;98310.47;;;11.90;100.00
59419;BME280;45224;50.904;6.038;2023-03-24T00:07:27;98311.25;;;11.94;100.00
59419;BME280;45224;50.904;6.038;2023-03-24T00:08:59;98299.97;;;11.95;100.00
59419;BME280;45224;50.904;6.038;2023-03-24T00:10:33;98296.41;;;11.99;100.00
59419;BME280;45224;50.904;6.038;2023-03-24T00:12:03;98294.63;;;12.01;100.00
59419;BME280;45224;50.904;6.038;2023-03-24T00:13:34;98301.84;;;11.90;100.00
59419;BME280;45224;50.904;6.038;2023-03-24T00:15:11;98297.75;;;11.82;100.00
59419;BME280;45224;50.904;6.038;2023-03-24T00:16:42;98290.31;;;11.70;100.00
59419;BME280;45224;50.904;6.038;2023-03-24T00:18:12;98297.03;;;11.77;100.00
59419;BME280;45224;50.904;6.038;2023-03-24T00:19:43;98292.66;;;11.79;100.00
59419;BME280;45224;50.904;6.038;2023-03-24T00:21:16;98297.66;;;11.85;100.00
59419;BME280;45224;50.904;6.038;2023-03-24T00:22:50;98285.69;;;11.81;100.00
59419;BME280;45224;50.904;6.038;2023-03-24T00:24:26;98288.34;;;11.78;100.00
59419;BME280;45224;50.904;6.038;2023-03-24T00:26:05;98289.44;;;11.71;100.00
59419;BME280;45224;50.904;6.038;2023-03-24T00:27:37;98281.53;;;11.76;100.00
59419;BME280;45224;50.904;6.038;2023-03-24T00:29:09;98278.06;;;11.75;100.00
59419;BME280;45224;50.904;6.038;2023-03-24T00:30:41;98279.03;;;11.73;100.00
59419;BME280;45224;50.904;6.038;2023-03-24T00:32:12;98280.59;;;11.78;100.00
59419;BME280;45224;50.904;6.038;2023-03-24T00:33:44;98284.00;;;11.79;100.00
59419;BME280;45224;50.904;6.038;2023-03-24T00:35:20;98284.78;;;11.82;100.00
59419;BME280;45224;50.904;6.038;2023-03-24T00:36:51;98308.59;;;11.64;100.00
59419;BME280;45224;50.904;6.038;2023-03-24T00:38:21;98295.41;;;11.73;100.00
59419;BME280;45224;50.904;6.038;2023-03-24T00:39:52;98297.13;;;11.74;100.00
59419;BME280;45224;50.904;6.038;2023-03-24T00:41:23;98294.53;;;11.74;100.00
59419;BME280;45224;50.904;6.038;2023-03-24T00:42:56;98284.88;;;11.79;100.00
59419;BME280;45224;50.904;6.038;2023-03-24T00:44:28;98291.03;;;11.75;100.00
59419;BME280;45224;50.904;6.038;2023-03-24T00:46:04;98275.44;;;11.77;100.00
59419;BME280;45224;50.904;6.038;2023-03-24T00:47:37;98276.56;;;11.68;100.00
59419;BME280;45224;50.904;6.038;2023-03-24T00:49:11;98274.78;;;11.70;100.00
59419;BME280;45224;50.904;6.038;2023-03-24T00:50:47;98260.50;;;11.57;100.00
59419;BME280;45224;50.904;6.038;2023-03-24T00:52:22;98266.47;;;11.59;100.00
59419;BME280;45224;50.904;6.038;2023-03-24T00:53:54;98263.09;;;11.57;100.00
59419;BME280;45224;50.904;6.038;2023-03-24T00:55:27;98268.00;;;11.66;100.00
59419;BME280;45224;50.904;6.038;2023-03-24T00:56:58;98259.50;;;11.61;100.00
59419;BME280;45224;50.904;6.038;2023-03-24T00:58:32;98257.75;;;11.63;100.00
59419;BME280;45224;50.904;6.038;2023-03-24T01:00:06;98242.22;;;11.63;100.00
59419;BME280;45224;50.904;6.038;2023-03-24T01:01:46;98233.34;;;11.70;100.00
59419;BME280;45224;50.904;6.038;2023-03-24T01:03:20;98220.25;;;11.76;100.00
59419;BME280;45224;50.904;6.038;2023-03-24T01:04:58;98229.19;;;11.66;100.00
59419;BME280;45224;50.904;6.038;2023-03-24T01:06:32;98219.72;;;11.65;100.00
59419;BME280;45224;50.904;6.038;2023-03-24T01:08:07;98224.88;;;11.65;100.00
59419;BME280;45224;50.904;6.038;2023-03-24T01:09:37;98218.72;;;11.69;100.00
59419;BME280;45224;50.904;6.038;2023-03-24T01:11:08;98220.53;;;11.65;100.00
59419;BME280;45224;50.904;6.038;2023-03-24T01:12:39;98207.06;;;11.54;100.00
59419;BME280;45224;50.904;6.038;2023-03-24T01:14:10;98222.50;;;11.57;100.00
59419;BME280;45224;50.904;6.038;2023-03-24T01:15:41;98212.81;;;11.64;100.00
59419;BME280;45224;50.904;6.038;2023-03-24T01:17:12;98206.94;;;11.59;100.00
59419;BME280;45224;50.904;6.038;2023-03-24T01:18:43;98210.38;;;11.59;100.00
59419;BME280;45224;50.904;6.038;2023-03-24T01:20:15;98208.81;;;11.54;100.00
59419;BME280;45224;50.904;6.038;2023-03-24T01:21:46;98198.50;;;11.52;100.00
59419;BME280;45224;50.904;6.038;2023-03-24T01:23:22;98210.56;;;11.53;100.00
59419;BME280;45224;50.904;6.038;2023-03-24T01:24:53;98202.66;;;11.58;100.00
59419;BME280;45224;50.904;6.038;2023-03-24T01:26:23;98195.63;;;11.63;100.00
59419;BME280;45224;50.904;6.038;2023-03-24T01:27:54;98202.47;;;11.64;100.00
59419;BME280;45224;50.904;6.038;2023-03-24T01:29:24;98192.13;;;11.64;100.00
59419;BME280;45224;50.904;6.038;2023-03-24T01:30:55;98183.66;;;11.59;100.00
59419;BME280;45224;50.904;6.038;2023-03-24T01:32:27;98180.09;;;11.63;100.00
59419;BME280;45224;50.904;6.038;2023-03-24T01:33:58;98188.69;;;11.63;100.00
59419;BME280;45224;50.904;6.038;2023-03-24T01:35:29;98189.25;;;11.73;100.00
59419;BME280;45224;50.904;6.038;2023-03-24T01:37:00;98176.50;;;11.67;100.00
59419;BME280;45224;50.904;6.038;2023-03-24T01:38:31;98154.16;;;11.64;100.00
59419;BME280;45224;50.904;6.038;2023-03-24T01:40:03;98163.28;;;11.76;100.00
59419;BME280;45224;50.904;6.038;2023-03-24T01:41:39;98162.41;;;11.77;100.00
59419;BME280;45224;50.904;6.038;2023-03-24T01:43:19;98165.50;;;11.88;100.00
59419;BME280;45224;50.904;6.038;2023-03-24T01:44:53;98154.47;;;11.82;100.00
59419;BME280;45224;50.904;6.038;2023-03-24T01:46:26;98158.53;;;11.91;100.00
59419;BME280;45224;50.904;6.038;2023-03-24T01:47:59;98160.22;;;11.92;100.00
59419;BME280;45224;50.904;6.038;2023-03-24T01:49:53;98157.78;;;11.87;100.00
59419;BME280;45224;50.904;6.038;2023-03-24T01:51:31;98153.53;;;11.84;100.00
59419;BME280;45224;50.904;6.038;2023-03-24T01:53:06;98155.13;;;11.88;100.00
59419;BME280;45224;50.904;6.038;2023-03-24T01:54:42;98153.34;;;11.91;100.00
59419;BME280;45224;50.904;6.038;2023-03-24T01:56:16;98160.84;;;12.00;100.00
59419;BME280;45224;50.904;6.038;2023-03-24T01:57:51;98139.38;;;11.96;100.00
59419;BME280;45224;50.904;6.038;2023-03-24T01:59:26;98154.81;;;11.99;100.00
59419;BME280;45224;50.904;6.038;2023-03-24T02:01:28;98153.94;;;12.00;100.00
59419;BME280;45224;50.904;6.038;2023-03-24T02:03:24;98150.53;;;11.98;100.00
59419;BME280;45224;50.904;6.038;2023-03-24T02:05:02;98146.19;;;11.99;100.00
59419;BME280;45224;50.904;6.038;2023-03-24T02:06:44;98144.13;;;12.10;100.00
59419;BME280;45224;50.904;6.038;2023-03-24T02:10:12;98143.19;;;12.13;100.00
59419;BME280;45224;50.904;6.038;2023-03-24T02:11:43;98151.88;;;12.10;100.00
59419;BME280;45224;50.904;6.038;2023-03-24T02:13:15;98142.16;;;12.17;100.00
59419;BME280;45224;50.904;6.038;2023-03-24T02:14:45;98143.72;;;12.22;100.00
59419;BME280;45224;50.904;6.038;2023-03-24T02:19:59;98146.31;;;12.22;100.00
59419;BME280;45224;50.904;6.038;2023-03-24T02:27:28;98149.66;;;12.26;100.00
59419;BME280;45224;50.904;6.038;2023-03-24T02:42:33;98135.72;;;12.29;100.00
59419;BME280;45224;50.904;6.038;2023-03-24T02:44:22;98128.75;;;12.31;99.93
59419;BME280;45224;50.904;6.038;2023-03-24T02:49:28;98154.44;;;12.37;99.92
59419;BME280;45224;50.904;6.038;2023-03-24T02:51:10;98145.00;;;12.36;99.88
59419;BME280;45224;50.904;6.038;2023-03-24T02:52:49;98135.47;;;12.36;99.83
59419;BME280;45224;50.904;6.038;2023-03-24T02:58:14;98133.91;;;12.32;99.77
59419;BME280;45224;50.904;6.038;2023-03-24T03:01:53;98130.38;;;12.33;99.56
59419;BME280;45224;50.904;6.038;2023-03-24T03:03:49;98127.94;;;12.29;100.00
59419;BME280;45224;50.904;6.038;2023-03-24T03:05:27;98129.50;;;12.34;100.00
59419;BME280;45224;50.904;6.038;2023-03-24T03:07:05;98142.34;;;12.37;99.87
59419;BME280;45224;50.904;6.038;2023-03-24T03:08:39;98136.97;;;12.44;99.98
59419;BME280;45224;50.904;6.038;2023-03-24T03:10:24;98139.03;;;12.34;99.64
59419;BME280;45224;50.904;6.038;2023-03-24T03:11:58;98138.13;;;12.35;100.00
59419;BME280;45224;50.904;6.038;2023-03-24T03:13:37;98132.19;;;12.31;100.00
59419;BME280;45224;50.904;6.038;2023-03-24T03:15:16;98125.75;;;12.43;99.46
59419;BME280;45224;50.904;6.038;2023-03-24T03:17:01;98147.44;;;12.40;99.14
59419;BME280;45224;50.904;6.038;2023-03-24T03:18:39;98141.28;;;12.43;99.42
59419;BME280;45224;50.904;6.038;2023-03-24T03:20:19;98140.66;;;12.36;99.63
59419;BME280;45224;50.904;6.038;2023-03-24T03:21:52;98143.19;;;12.38;100.00
59419;BME280;45224;50.904;6.038;2023-03-24T03:23:29;98137.19;;;12.37;100.00
59419;BME280;45224;50.904;6.038;2023-03-24T03:25:03;98129.56;;;12.33;100.00
59419;BME280;45224;50.904;6.038;2023-03-24T03:26:34;98141.56;;;12.35;100.00
59419;BME280;45224;50.904;6.038;2023-03-24T03:28:07;98136.75;;;12.24;100.00
59419;BME280;45224;50.904;6.038;2023-03-24T03:29:44;98146.19;;;12.26;100.00
59419;BME280;45224;50.904;6.038;2023-03-24T03:31:24;98139.78;;;12.11;100.00
59419;BME280;45224;50.904;6.038;2023-03-24T03:33:09;98134.53;;;12.12;100.00
59419;BME280;45224;50.904;6.038;2023-03-24T03:34:49;98143.81;;;12.19;100.00
59419;BME280;45224;50.904;6.038;2023-03-24T03:36:34;98155.22;;;12.14;100.00
59419;BME280;45224;50.904;6.038;2023-03-24T03:39:48;98152.66;;;12.12;100.00
59419;BME280;45224;50.904;6.038;2023-03-24T03:41:21;98135.75;;;12.02;100.00
59419;BME280;45224;50.904;6.038;2023-03-24T03:42:52;98153.59;;;12.11;100.00
59419;BME280;45224;50.904;6.038;2023-03-24T03:44:23;98153.22;;;11.95;100.00
59419;BME280;45224;50.904;6.038;2023-03-24T03:45:54;98155.03;;;11.92;100.00
59419;BME280;45224;50.904;6.038;2023-03-24T03:47:30;98162.81;;;11.92;100.00
59419;BME280;45224;50.904;6.038;2023-03-24T03:49:03;98172.16;;;11.97;100.00
59419;BME280;45224;50.904;6.038;2023-03-24T03:50:36;98165.41;;;11.92;100.00
59419;BME280;45224;50.904;6.038;2023-03-24T03:52:11;98171.34;;;11.95;100.00
59419;BME280;45224;50.904;6.038;2023-03-24T03:53:58;98190.22;;;11.99;100.00
59419;BME280;45224;50.904;6.038;2023-03-24T03:55:30;98196.38;;;11.95;100.00
59419;BME280;45224;50.904;6.038;2023-03-24T03:57:01;98203.28;;;11.96;100.00
59419;BME280;45224;50.904;6.038;2023-03-24T03:58:55;98201.75;;;11.88;100.00
59419;BME280;45224;50.904;6.038;2023-03-24T04:00:28;98213.09;;;11.84;100.00
59419;BME280;45224;50.904;6.038;2023-03-24T04:06:13;98217.75;;;11.73;100.00
59419;BME280;45224;50.904;6.038;2023-03-24T04:08:17;98217.75;;;11.73;100.00
59419;BME280;45224;50.904;6.038;2023-03-24T04:10:14;98216.69;;;11.79;100.00
59419;BME280;45224;50.904;6.038;2023-03-24T04:15:39;98238.72;;;11.64;100.00
59419;BME280;45224;50.904;6.038;2023-03-24T04:24:03;98274.19;;;11.60;100.00
59419;BME280;45224;50.904;6.038;2023-03-24T04:30:08;98290.06;;;11.48;100.00
59419;BME280;45224;50.904;6.038;2023-03-24T04:31:48;98284.97;;;11.45;100.00
59419;BME280;45224;50.904;6.038;2023-03-24T04:33:27;98288.34;;;11.48;100.00
59419;BME280;45224;50.904;6.038;2023-03-24T04:35:05;98293.69;;;11.42;100.00
59419;BME280;45224;50.904;6.038;2023-03-24T04:37:16;98298.22;;;11.34;100.00
59419;BME280;45224;50.904;6.038;2023-03-24T04:39:00;98303.94;;;11.45;100.00
59419;BME280;45224;50.904;6.038;2023-03-24T04:40:43;98314.25;;;11.47;100.00
59419;BME280;45224;50.904;6.038;2023-03-24T04:42:19;98320.28;;;11.47;100.00
59419;BME280;45224;50.904;6.038;2023-03-24T04:43:53;98318.75;;;11.40;100.00
59419;BME280;45224;50.904;6.038;2023-03-24T04:45:26;98313.78;;;11.32;98.41
59419;BME280;45224;50.904;6.038;2023-03-24T04:47:19;98318.00;;;11.35;97.41
59419;BME280;45224;50.904;6.038;2023-03-24T04:49:02;98330.94;;;11.35;98.14
59419;BME280;45224;50.904;6.038;2023-03-24T04:50:39;98339.63;;;11.34;98.01
59419;BME280;45224;50.904;6.038;2023-03-24T04:52:18;98339.69;;;11.31;97.87
59419;BME280;45224;50.904;6.038;2023-03-24T04:53:49;98348.28;;;10.99;96.44
59419;BME280;45224;50.904;6.038;2023-03-24T04:57:46;98354.81;;;10.77;95.17
59419;BME280;45224;50.904;6.038;2023-03-24T04:59:16;98357.38;;;10.79;94.79
59419;BME280;45224;50.904;6.038;2023-03-24T05:00:49;98350.72;;;10.67;94.32
59419;BME280;45224;50.904;6.038;2023-03-24T05:02:20;98358.19;;;10.80;93.58
59419;BME280;45224;50.904;6.038;2023-03-24T05:03:58;98349.00;;;10.68;91.42
59419;BME280;45224;50.904;6.038;2023-03-24T05:05:29;98367.91;;;10.70;90.65
59419;BME280;45224;50.904;6.038;2023-03-24T05:06:59;98365.50;;;10.62;91.20
59419;BME280;45224;50.904;6.038;2023-03-24T05:08:30;98368.91;;;10.64;91.23
59419;BME280;45224;50.904;6.038;2023-03-24T05:10:02;98367.34;;;10.57;91.62
59419;BME280;45224;50.904;6.038;2023-03-24T05:11:35;98379.66;;;10.46;91.25
59419;BME280;45224;50.904;6.038;2023-03-24T05:13:12;98386.25;;;10.59;91.46
59419;BME280;45224;50.904;6.038;2023-03-24T05:14:48;98387.16;;;10.58;91.28
59419;BME280;45224;50.904;6.038;2023-03-24T05:16:19;98382.78;;;10.60;91.22
59419;BME280;45224;50.904;6.038;2023-03-24T05:17:58;98389.72;;;10.58;91.51
59419;BME280;45224;50.904;6.038;2023-03-24T05:19:29;98382.00;;;10.56;90.84
59419;BME280;45224;50.904;6.038;2023-03-24T05:21:00;98387.19;;;10.56;91.06
59419;BME280;45224;50.904;6.038;2023-03-24T05:22:31;98396.25;;;10.35;90.84
59419;BME280;45224;50.904;6.038;2023-03-24T05:24:02;98391.81;;;10.40;90.63
59419;BME280;45224;50.904;6.038;2023-03-24T05:25:33;98409.31;;;10.26;90.69
59419;BME280;45224;50.904;6.038;2023-03-24T05:27:03;98421.25;;;10.33;90.27
59419;BME280;45224;50.904;6.038;2023-03-24T05:28:34;98418.66;;;10.32;90.23
59419;BME280;45224;50.904;6.038;2023-03-24T05:30:06;98412.66;;;10.31;89.85
59419;BME280;45224;50.904;6.038;2023-03-24T05:31:38;98417.00;;;10.29;90.12
59419;BME280;45224;50.904;6.038;2023-03-24T05:33:20;98421.53;;;10.18;89.94
59419;BME280;45224;50.904;6.038;2023-03-24T05:34:51;98424.41;;;10.02;89.64
59419;BME280;45224;50.904;6.038;2023-03-24T05:36:29;98421.88;;;9.99;90.38
59419;BME280;45224;50.904;6.038;2023-03-24T05:38:02;98432.84;;;10.12;90.23
59419;BME280;45224;50.904;6.038;2023-03-24T05:39:33;98429.38;;;10.13;89.65
59419;BME280;45224;50.904;6.038;2023-03-24T05:41:14;98438.81;;;10.16;89.59
59419;BME280;45224;50.904;6.038;2023-03-24T05:42:49;98428.66;;;10.07;89.65
59419;BME280;45224;50.904;6.038;2023-03-24T05:44:20;98435.44;;;10.11;89.94
59419;BME280;45224;50.904;6.038;2023-03-24T05:46:03;98444.16;;;10.07;90.68
59419;BME280;45224;50.904;6.038;2023-03-24T05:47:37;98434.00;;;9.97;90.37
59419;BME280;45224;50.904;6.038;2023-03-24T05:49:07;98438.28;;;9.98;90.84
59419;BME280;45224;50.904;6.038;2023-03-24T05:50:43;98447.69;;;10.01;90.80
59419;BME280;45224;50.904;6.038;2023-03-24T05:52:14;98450.44;;;9.93;90.65
59419;BME280;45224;50.904;6.038;2023-03-24T05:53:48;98442.69;;;9.93;90.86
59419;BME280;45224;50.904;6.038;2023-03-24T05:55:21;98438.25;;;10.00;90.75
59419;BME280;45224;50.904;6.038;2023-03-24T05:56:57;98446.97;;;9.93;90.67
59419;BME280;45224;50.904;6.038;2023-03-24T05:58:42;98454.06;;;9.81;90.61
59419;BME280;45224;50.904;6.038;2023-03-24T06:00:14;98458.44;;;9.78;91.38
59419;BME280;45224;50.904;6.038;2023-03-24T06:01:55;98460.03;;;9.85;91.27
59419;BME280;45224;50.904;6.038;2023-03-24T06:03:41;98471.25;;;9.84;90.92
59419;BME280;45224;50.904;6.038;2023-03-24T06:05:16;98470.59;;;9.73;91.46
59419;BME280;45224;50.904;6.038;2023-03-24T06:06:46;98471.44;;;9.73;91.58
59419;BME280;45224;50.904;6.038;2023-03-24T06:08:21;98475.72;;;9.74;91.92
59419;BME280;45224;50.904;6.038;2023-03-24T06:09:53;98470.69;;;9.66;91.53
59419;BME280;45224;50.904;6.038;2023-03-24T06:11:27;98483.44;;;9.76;91.82
59419;BME280;45224;50.904;6.038;2023-03-24T06:13:06;98473.38;;;9.60;92.19
59419;BME280;45224;50.904;6.038;2023-03-24T06:14:39;98480.13;;;9.69;91.56
59419;BME280;45224;50.904;6.038;2023-03-24T06:16:14;98478.31;;;9.74;91.34
59419;BME280;45224;50.904;6.038;2023-03-24T06:18:00;98484.25;;;9.78;91.26
59419;BME280;45224;50.904;6.038;2023-03-24T06:19:36;98491.34;;;9.66;91.30
59419;BME280;45224;50.904;6.038;2023-03-24T06:21:30;98486.28;;;9.60;91.96
59419;BME280;45224;50.904;6.038;2023-03-24T06:23:01;98494.00;;;9.62;92.33
59419;BME280;45224;50.904;6.038;2023-03-24T06:24:38;98493.38;;;9.46;92.88
59419;BME280;45224;50.904;6.038;2023-03-24T06:26:13;98494.94;;;9.58;93.34
59419;BME280;45224;50.904;6.038;2023-03-24T06:27:57;98501.84;;;9.54;93.87
59419;BME280;45224;50.904;6.038;2023-03-24T06:29:34;98498.25;;;9.64;93.27
59419;BME280;45224;50.904;6.038;2023-03-24T06:31:09;98499.13;;;9.63;93.57
59419;BME280;45224;50.904;6.038;2023-03-24T06:32:44;98502.47;;;9.68;92.93
59419;BME280;45224;50.904;6.038;2023-03-24T06:34:15;98511.84;;;9.76;93.33
59419;BME280;45224;50.904;6.038;2023-03-24T06:35:51;98511.16;;;9.64;93.77
59419;BME280;45224;50.904;6.038;2023-03-24T06:37:22;98520.59;;;9.65;93.70
59419;BME280;45224;50.904;6.038;2023-03-24T06:38:54;98517.97;;;9.68;94.12
59419;BME280;45224;50.904;6.038;2023-03-24T06:40:25;98509.31;;;9.73;93.83
59419;BME280;45224;50.904;6.038;2023-03-24T06:42:00;98517.88;;;9.75;94.27
59419;BME280;45224;50.904;6.038;2023-03-24T06:43:33;98518.94;;;9.63;94.42
59419;BME280;45224;50.904;6.038;2023-03-24T06:45:04;98520.50;;;9.72;94.56
59419;BME280;45224;50.904;6.038;2023-03-24T06:46:34;98517.16;;;9.66;94.55
59419;BME280;45224;50.904;6.038;2023-03-24T06:48:05;98521.31;;;9.74;94.56
59419;BME280;45224;50.904;6.038;2023-03-24T06:49:36;98518.72;;;9.74;94.49
59419;BME280;45224;50.904;6.038;2023-03-24T06:51:07;98508.28;;;9.81;94.39
59419;BME280;45224;50.904;6.038;2023-03-24T06:52:38;98498.81;;;9.82;93.90
59419;BME280;45224;50.904;6.038;2023-03-24T06:54:10;98503.81;;;9.91;94.04
59419;BME280;45224;50.904;6.038;2023-03-24T06:55:41;98505.50;;;9.94;93.77
59419;BME280;45224;50.904;6.038;2023-03-24T06:57:12;98503.63;;;10.02;93.07
59419;BME280;45224;50.904;6.038;2023-03-24T06:59:02;98503.41;;;10.14;92.37
59419;BME280;45224;50.904;6.038;2023-03-24T07:00:36;98499.66;;;10.29;92.13
59419;BME280;45224;50.904;6.038;2023-03-24T07:02:33;98507.97;;;10.47;90.86
59419;BME280;45224;50.904;6.038;2023-03-24T07:04:06;98489.69;;;10.56;89.57
59419;BME280;45224;50.904;6.038;2023-03-24T07:05:57;98494.69;;;10.64;88.39
59419;BME280;45224;50.904;6.038;2023-03-24T07:07:30;98500.38;;;10.81;86.65
59419;BME280;45224;50.904;6.038;2023-03-24T07:09:27;98500.53;;;11.12;86.83
59419;BME280;45224;50.904;6.038;2023-03-24T07:10:58;98499.34;;;11.27;86.34
59419;BME280;45224;50.904;6.038;2023-03-24T07:12:28;98508.59;;;11.36;85.23
59419;BME280;45224;50.904;6.038;2023-03-24T07:14:00;98523.13;;;11.43;84.09
59419;BME280;45224;50.904;6.038;2023-03-24T07:15:33;98525.59;;;11.46;83.14
59419;BME280;45224;50.904;6.038;2023-03-24T07:17:03;98521.84;;;11.60;84.06
59419;BME280;45224;50.904;6.038;2023-03-24T07:18:54;98512.75;;;11.79;83.90
59419;BME280;45224;50.904;6.038;2023-03-24T07:20:25;98511.75;;;11.83;82.29
59419;BME280;45224;50.904;6.038;2023-03-24T07:22:07;98521.09;;;11.91;81.75
59419;BME280;45224;50.904;6.038;2023-03-24T07:23:52;98524.28;;;12.02;81.43
59419;BME280;45224;50.904;6.038;2023-03-24T07:25:25;98522.94;;;12.20;81.90
59419;BME280;45224;50.904;6.038;2023-03-24T07:27:22;98514.69;;;12.37;79.51
59419;BME280;45224;50.904;6.038;2023-03-24T07:28:52;98526.53;;;12.47;78.77
59419;BME280;45224;50.904;6.038;2023-03-24T07:30:31;98536.53;;;12.59;78.87
59419;BME280;45224;50.904;6.038;2023-03-24T07:32:01;98531.97;;;12.69;78.43
59419;BME280;45224;50.904;6.038;2023-03-24T07:33:33;98520.25;;;12.54;77.84
59419;BME280;45224;50.904;6.038;2023-03-24T07:35:08;98537.81;;;12.45;77.86
59419;BME280;45224;50.904;6.038;2023-03-24T07:36:42;98541.16;;;12.48;77.84
59419;BME280;45224;50.904;6.038;2023-03-24T07:38:17;98542.41;;;12.66;77.61
59419;BME280;45224;50.904;6.038;2023-03-24T07:39:50;98531.22;;;12.64;77.03
59419;BME280;45224;50.904;6.038;2023-03-24T07:41:21;98536.00;;;12.78;76.41
59419;BME280;45224;50.904;6.038;2023-03-24T07:43:02;98549.19;;;12.70;76.20
59419;BME280;45224;50.904;6.038;2023-03-24T07:44:58;98543.66;;;12.83;76.79
59419;BME280;45224;50.904;6.038;2023-03-24T07:46:28;98551.13;;;12.93;76.03
59419;BME280;45224;50.904;6.038;2023-03-24T07:47:59;98546.13;;;12.87;75.36
59419;BME280;45224;50.904;6.038;2023-03-24T07:49:35;98550.75;;;13.06;74.95
59419;BME280;45224;50.904;6.038;2023-03-24T07:51:09;98550.31;;;13.21;74.80
59419;BME280;45224;50.904;6.038;2023-03-24T07:52:58;98557.09;;;12.97;73.46
59419;BME280;45224;50.904;6.038;2023-03-24T07:54:29;98564.78;;;12.69;74.22
59419;BME280;45224;50.904;6.038;2023-03-24T07:55:59;98566.69;;;12.64;74.43
59419;BME280;45224;50.904;6.038;2023-03-24T07:57:30;98557.38;;;12.56;74.70
59419;BME280;45224;50.904;6.038;2023-03-24T07:59:01;98564.25;;;12.57;74.10
59419;BME280;45224;50.904;6.038;2023-03-24T08:00:50;98572.66;;;12.34;74.52
59419;BME280;45224;50.904;6.038;2023-03-24T08:02:29;98572.13;;;12.21;75.89
59419;BME280;45224;50.904;6.038;2023-03-24T08:04:22;98568.97;;;12.10;76.20
59419;BME280;45224;50.904;6.038;2023-03-24T08:06:11;98578.41;;;11.75;76.05
59419;BME280;45224;50.904;6.038;2023-03-24T08:07:50;98568.06;;;11.75;76.71
59419;BME280;45224;50.904;6.038;2023-03-24T08:09:24;98580.78;;;11.84;76.80
59419;BME280;45224;50.904;6.038;2023-03-24T08:10:55;98567.84;;;11.84;77.37
59419;BME280;45224;50.904;6.038;2023-03-24T08:12:25;98567.16;;;11.78;76.83
59419;BME280;45224;50.904;6.038;2023-03-24T08:13:56;98574.97;;;11.76;76.84
59419;BME280;45224;50.904;6.038;2023-03-24T08:15:27;98572.91;;;11.55;77.57
59419;BME280;45224;50.904;6.038;2023-03-24T08:16:58;98587.31;;;11.65;76.87
59419;BME280;45224;50.904;6.038;2023-03-24T08:18:28;98592.28;;;11.74;76.35
59419;BME280;45224;50.904;6.038;2023-03-24T08:20:02;98582.66;;;11.43;76.46
59419;BME280;45224;50.904;6.038;2023-03-24T08:21:43;98585.66;;;11.61;77.24
59419;BME280;45224;50.904;6.038;2023-03-24T08:23:14;98588.13;;;11.67;76.86
59419;BME280;45224;50.904;6.038;2023-03-24T08:24:45;98585.66;;;11.61;76.31
59419;BME280;45224;50.904;6.038;2023-03-24T08:26:16;98578.22;;;11.84;75.67
59419;BME280;45224;50.904;6.038;2023-03-24T08:27:47;98586.13;;;12.14;76.52
59419;BME280;45224;50.904;6.038;2023-03-24T08:29:17;98592.44;;;12.37;73.70
59419;BME280;45224;50.904;6.038;2023-03-24T08:30:48;98579.72;;;12.60;72.78
59419;BME280;45224;50.904;6.038;2023-03-24T08:32:18;98572.25;;;12.81;71.74
59419;BME280;45224;50.904;6.038;2023-03-24T08:33:49;98583.59;;;13.07;70.74
59419;BME280;45224;50.904;6.038;2023-03-24T08:35:23;98581.19;;;13.29;71.20
59419;BME280;45224;50.904;6.038;2023-03-24T08:36:54;98583.28;;;13.47;69.78
59419;BME280;45224;50.904;6.038;2023-03-24T08:38:24;98578.09;;;13.47;68.32
59419;BME280;45224;50.904;6.038;2023-03-24T08:39:59;98572.00;;;13.75;68.39
59419;BME280;45224;50.904;6.038;2023-03-24T08:41:35;98579.03;;;13.45;66.98
59419;BME280;45224;50.904;6.038;2023-03-24T08:43:07;98580.56;;;13.79;66.95
59419;BME280;45224;50.904;6.038;2023-03-24T08:44:38;98588.56;;;13.73;66.80
59419;BME280;45224;50.904;6.038;2023-03-24T08:46:08;98594.41;;;13.79;65.89
59419;BME280;45224;50.904;6.038;2023-03-24T08:47:39;98591.75;;;14.07;66.92
59419;BME280;45224;50.904;6.038;2023-03-24T08:49:09;98596.44;;;13.96;64.71
59419;BME280;45224;50.904;6.038;2023-03-24T08:50:40;98593.75;;;13.73;65.75
59419;BME280;45224;50.904;6.038;2023-03-24T08:52:11;98600.91;;;13.64;65.30
59419;BME280;45224;50.904;6.038;2023-03-24T08:53:42;98592.59;;;13.81;66.28
59419;BME280;45224;50.904;6.038;2023-03-24T08:55:14;98596.22;;;13.76;66.41
59419;BME280;45224;50.904;6.038;2023-03-24T08:56:44;98596.38;;;13.98;66.13
59419;BME280;45224;50.904;6.038;2023-03-24T08:58:17;98608.78;;;14.16;65.45
59419;BME280;45224;50.904;6.038;2023-03-24T08:59:48;98600.50;;;14.30;64.40
59419;BME280;45224;50.904;6.038;2023-03-24T09:01:20;98598.81;;;14.29;64.65
59419;BME280;45224;50.904;6.038;2023-03-24T09:02:52;98609.34;;;14.26;64.88
59419;BME280;45224;50.904;6.038;2023-03-24T09:04:23;98615.81;;;14.39;65.26
59419;BME280;45224;50.904;6.038;2023-03-24T09:05:56;98617.03;;;14.02;63.72
59419;BME280;45224;50.904;6.038;2023-03-24T09:07:27;98614.09;;;14.13;64.64
59419;BME280;45224;50.904;6.038;2023-03-24T09:08:57;98614.38;;;14.04;64.35
59419;BME280;45224;50.904;6.038;2023-03-24T09:10:28;98613.75;;;13.97;64.24
59419;BME280;45224;50.904;6.038;2023-03-24T09:11:58;98618.56;;;13.53;65.59
59419;BME280;45224;50.904;6.038;2023-03-24T09:13:29;98619.13;;;13.63;66.31
59419;BME280;45224;50.904;6.038;2023-03-24T09:15:00;98623.44;;;13.64;65.32
59419;BME280;45224;50.904;6.038;2023-03-24T09:16:30;98610.66;;;13.58;65.91
59419;BME280;45224;50.904;6.038;2023-03-24T09:18:01;98618.31;;;13.62;66.16
59419;BME280;45224;50.904;6.038;2023-03-24T09:19:32;98615.53;;;13.68;66.31
59419;BME280;45224;50.904;6.038;2023-03-24T09:21:03;98614.44;;;13.47;66.69